sensor_id;sensor_type;location;lat;lon;timestamp;pressure;altitude;pressure_sealevel;temperature;humidity
14902;BME280;7542;49.078;9.194;2023-11-21T00:00:53;97969.94;;;32.50;31.35
14902;BME280;7542;49.078;9.194;2023-11-21T00:01:55;97962.63;;;32.42;30.73
14902;BME280;7542;49.078;9.194;2023-11-21T00:02:58;97967.63;;;32.31;30.32
14902;BME280;7542;49.078;9.194;2023-11-21T00:04:01;97972.28;;;32.22;30.03
14902;BME280;7542;49.078;9.194;2023-11-21T00:05:04;97970.72;;;32.12;29.82
14902;BME280;7542;49.078;9.194;2023-11-21T00:06:07;97968.06;;;32.04;29.94
14902;BME280;7542;49.078;9.194;2023-11-21T00:07:11;97960.28;;;31.93;29.49
14902;BME280;7542;49.078;9.194;2023-11-21T00:08:13;97962.22;;;31.84;29.44
14902;BME280;7542;49.078;9.194;2023-11-21T00:09:15;97967.34;;;31.77;29.31
14902;BME280;7542;49.078;9.194;2023-11-21T00:10:17;97963.03;;;31.67;29.55
14902;BME280;7542;49.078;9.194;2023-11-21T00:11:19;97963.88;;;31.59;29.50
14902;BME280;7542;49.078;9.194;2023-11-21T00:12:21;97960.50;;;31.54;29.63
14902;BME280;7542;49.078;9.194;2023-11-21T00:13:23;97961.31;;;31.45;29.06
14902;BME280;7542;49.078;9.194;2023-11-21T00:14:25;97963.25;;;31.36;29.29
14902;BME280;7542;49.078;9.194;2023-11-21T00:15:27;97964.22;;;31.32;29.17
14902;BME280;7542;49.078;9.194;2023-11-21T00:16:29;97958.00;;;31.23;29.77
14902;BME280;7542;49.078;9.194;2023-11-21T00:17:31;97959.28;;;31.16;29.30
14902;BME280;7542;49.078;9.194;2023-11-21T00:18:33;97965.16;;;31.10;29.50
14902;BME280;7542;49.078;9.194;2023-11-21T00:19:35;97966.75;;;31.02;29.95
14902;BME280;7542;49.078;9.194;2023-11-21T00:20:37;97962.28;;;30.98;29.43
14902;BME280;7542;49.078;9.194;2023-11-21T00:21:39;97950.00;;;30.92;29.69
14902;BME280;7542;49.078;9.194;2023-11-21T00:22:41;97955.59;;;30.86;29.83
14902;BME280;7542;49.078;9.194;2023-11-21T00:23:43;97959.56;;;30.80;29.84
14902;BME280;7542;49.078;9.194;2023-11-21T00:24:46;97958.13;;;30.74;29.72
14902;BME280;7542;49.078;9.194;2023-11-21T00:25:48;97964.00;;;30.68;29.84
14902;BME280;7542;49.078;9.194;2023-11-21T00:26:51;97962.84;;;30.60;29.92
14902;BME280;7542;49.078;9.194;2023-11-21T00:27:53;97961.88;;;30.56;30.30
14902;BME280;7542;49.078;9.194;2023-11-21T00:28:55;97958.22;;;30.52;30.01
14902;BME280;7542;49.078;9.194;2023-11-21T00:29:57;97956.44;;;30.47;30.07
14902;BME280;7542;49.078;9.194;2023-11-21T00:30:59;97962.03;;;30.42;29.89
14902;BME280;7542;49.078;9.194;2023-11-21T00:32:01;97955.16;;;30.36;30.38
14902;BME280;7542;49.078;9.194;2023-11-21T00:33:03;97957.22;;;30.30;30.40
14902;BME280;7542;49.078;9.194;2023-11-21T00:34:06;97954.66;;;30.25;30.23
14902;BME280;7542;49.078;9.194;2023-11-21T00:35:08;97959.88;;;30.22;30.61
14902;BME280;7542;49.078;9.194;2023-11-21T00:36:10;97961.63;;;30.18;30.63
14902;BME280;7542;49.078;9.194;2023-11-21T00:37:12;97962.56;;;30.13;30.54
14902;BME280;7542;49.078;9.194;2023-11-21T00:38:14;97956.19;;;30.09;30.84
14902;BME280;7542;49.078;9.194;2023-11-21T00:39:16;97952.00;;;30.03;30.47
14902;BME280;7542;49.078;9.194;2023-11-21T00:40:18;97958.81;;;30.00;30.59
14902;BME280;7542;49.078;9.194;2023-11-21T00:41:23;97958.94;;;29.95;30.97
14902;BME280;7542;49.078;9.194;2023-11-21T00:42:25;97953.38;;;29.92;30.53
14902;BME280;7542;49.078;9.194;2023-11-21T00:43:27;97949.72;;;29.88;30.50
14902;BME280;7542;49.078;9.194;2023-11-21T00:44:29;97951.41;;;29.84;31.05
14902;BME280;7542;49.078;9.194;2023-11-21T00:45:31;97952.84;;;29.81;30.66
14902;BME280;7542;49.078;9.194;2023-11-21T00:46:33;97947.59;;;29.76;30.51
14902;BME280;7542;49.078;9.194;2023-11-21T00:47:35;97950.09;;;29.72;31.00
14902;BME280;7542;49.078;9.194;2023-11-21T00:48:37;97942.13;;;29.67;31.29
14902;BME280;7542;49.078;9.194;2023-11-21T00:49:40;97948.44;;;29.63;31.14
14902;BME280;7542;49.078;9.194;2023-11-21T00:50:42;97955.28;;;29.60;30.73
14902;BME280;7542;49.078;9.194;2023-11-21T00:51:43;97948.59;;;29.58;31.46
14902;BME280;7542;49.078;9.194;2023-11-21T00:52:45;97950.31;;;29.54;30.85
14902;BME280;7542;49.078;9.194;2023-11-21T00:53:48;97949.31;;;29.50;31.23
14902;BME280;7542;49.078;9.194;2023-11-21T00:54:50;97953.13;;;29.49;31.33
14902;BME280;7542;49.078;9.194;2023-11-21T00:55:52;97948.66;;;29.44;31.24
14902;BME280;7542;49.078;9.194;2023-11-21T00:56:58;97958.13;;;29.41;31.00
14902;BME280;7542;49.078;9.194;2023-11-21T00:58:00;97954.16;;;29.39;31.45
14902;BME280;7542;49.078;9.194;2023-11-21T00:59:05;97953.19;;;29.35;31.56
14902;BME280;7542;49.078;9.194;2023-11-21T01:00:07;97954.59;;;29.32;31.13
14902;BME280;7542;49.078;9.194;2023-11-21T01:01:16;97955.19;;;29.29;31.58
14902;BME280;7542;49.078;9.194;2023-11-21T01:02:18;97945.63;;;29.23;31.72
14902;BME280;7542;49.078;9.194;2023-11-21T01:03:20;97956.13;;;29.25;31.74
14902;BME280;7542;49.078;9.194;2023-11-21T01:04:23;97958.34;;;29.23;31.58
14902;BME280;7542;49.078;9.194;2023-11-21T01:05:25;97955.75;;;29.17;31.49
14902;BME280;7542;49.078;9.194;2023-11-21T01:06:28;97951.78;;;29.15;31.89
14902;BME280;7542;49.078;9.194;2023-11-21T01:07:31;97948.59;;;29.13;31.44
14902;BME280;7542;49.078;9.194;2023-11-21T01:08:33;97952.38;;;29.12;31.42
14902;BME280;7542;49.078;9.194;2023-11-21T01:09:36;97952.50;;;29.07;31.93
14902;BME280;7542;49.078;9.194;2023-11-21T01:10:38;97955.50;;;29.05;31.72
14902;BME280;7542;49.078;9.194;2023-11-21T01:11:40;97953.41;;;29.02;32.02
14902;BME280;7542;49.078;9.194;2023-11-21T01:12:42;97954.03;;;28.99;31.53
14902;BME280;7542;49.078;9.194;2023-11-21T01:13:44;97957.84;;;28.98;31.90
14902;BME280;7542;49.078;9.194;2023-11-21T01:14:46;97955.72;;;28.95;32.04
14902;BME280;7542;49.078;9.194;2023-11-21T01:15:49;97954.94;;;28.95;32.08
14902;BME280;7542;49.078;9.194;2023-11-21T01:16:50;97955.25;;;28.93;32.02
14902;BME280;7542;49.078;9.194;2023-11-21T01:17:52;97955.38;;;28.88;31.79
14902;BME280;7542;49.078;9.194;2023-11-21T01:18:54;97957.53;;;28.86;31.71
14902;BME280;7542;49.078;9.194;2023-11-21T01:19:56;97959.44;;;28.85;31.73
14902;BME280;7542;49.078;9.194;2023-11-21T01:20:59;97950.84;;;28.83;31.87
14902;BME280;7542;49.078;9.194;2023-11-21T01:22:02;97956.06;;;28.80;32.30
14902;BME280;7542;49.078;9.194;2023-11-21T01:23:04;97959.84;;;28.79;32.10
14902;BME280;7542;49.078;9.194;2023-11-21T01:24:07;97957.47;;;28.77;32.23
14902;BME280;7542;49.078;9.194;2023-11-21T01:25:09;97950.25;;;28.73;32.22
14902;BME280;7542;49.078;9.194;2023-11-21T01:26:12;97951.38;;;28.72;32.17
14902;BME280;7542;49.078;9.194;2023-11-21T01:27:14;97943.59;;;28.70;31.88
14902;BME280;7542;49.078;9.194;2023-11-21T01:28:16;97949.91;;;28.66;32.15
14902;BME280;7542;49.078;9.194;2023-11-21T01:29:18;97954.47;;;28.65;32.15
14902;BME280;7542;49.078;9.194;2023-11-21T01:30:20;97952.06;;;28.64;32.42
14902;BME280;7542;49.078;9.194;2023-11-21T01:31:22;97948.59;;;28.63;32.23
14902;BME280;7542;49.078;9.194;2023-11-21T01:32:24;97949.19;;;28.60;31.99
14902;BME280;7542;49.078;9.194;2023-11-21T01:33:26;97954.09;;;28.58;31.93
14902;BME280;7542;49.078;9.194;2023-11-21T01:34:28;97952.81;;;28.55;32.14
14902;BME280;7542;49.078;9.194;2023-11-21T01:35:30;97953.41;;;28.52;32.22
14902;BME280;7542;49.078;9.194;2023-11-21T01:36:33;97946.91;;;28.53;32.63
14902;BME280;7542;49.078;9.194;2023-11-21T01:37:35;97952.91;;;28.50;32.29
14902;BME280;7542;49.078;9.194;2023-11-21T01:38:37;97951.31;;;28.49;32.40
14902;BME280;7542;49.078;9.194;2023-11-21T01:39:39;97950.50;;;28.49;32.61
14902;BME280;7542;49.078;9.194;2023-11-21T01:40:42;97951.94;;;28.46;32.63
14902;BME280;7542;49.078;9.194;2023-11-21T01:41:44;97952.22;;;28.45;32.32
14902;BME280;7542;49.078;9.194;2023-11-21T01:42:46;97949.81;;;28.43;32.61
14902;BME280;7542;49.078;9.194;2023-11-21T01:43:49;97956.59;;;28.41;32.55
14902;BME280;7542;49.078;9.194;2023-11-21T01:44:51;97954.72;;;28.41;32.50
14902;BME280;7542;49.078;9.194;2023-11-21T01:45:54;97951.53;;;28.39;32.59
14902;BME280;7542;49.078;9.194;2023-11-21T01:46:58;97949.44;;;28.36;32.33
14902;BME280;7542;49.078;9.194;2023-11-21T01:48:01;97948.16;;;28.34;32.46
14902;BME280;7542;49.078;9.194;2023-11-21T01:49:04;97957.03;;;28.34;32.80
14902;BME280;7542;49.078;9.194;2023-11-21T01:50:08;97956.50;;;28.32;32.60
14902;BME280;7542;49.078;9.194;2023-11-21T01:51:14;97951.41;;;28.30;32.43
14902;BME280;7542;49.078;9.194;2023-11-21T01:52:16;97948.22;;;28.28;32.51
14902;BME280;7542;49.078;9.194;2023-11-21T01:53:19;97952.81;;;28.28;32.61
14902;BME280;7542;49.078;9.194;2023-11-21T01:54:22;97945.81;;;28.27;32.56
14902;BME280;7542;49.078;9.194;2023-11-21T01:55:24;97953.09;;;28.26;32.43
14902;BME280;7542;49.078;9.194;2023-11-21T01:56:29;97939.94;;;28.25;32.50
14902;BME280;7542;49.078;9.194;2023-11-21T01:57:32;97953.19;;;28.21;32.72
14902;BME280;7542;49.078;9.194;2023-11-21T01:58:35;97948.91;;;28.20;32.78
14902;BME280;7542;49.078;9.194;2023-11-21T01:59:38;97947.31;;;28.19;32.94
14902;BME280;7542;49.078;9.194;2023-11-21T02:00:43;97944.13;;;28.17;32.94
14902;BME280;7542;49.078;9.194;2023-11-21T02:01:45;97951.69;;;28.15;32.72
14902;BME280;7542;49.078;9.194;2023-11-21T02:02:49;97950.13;;;28.14;32.65
14902;BME280;7542;49.078;9.194;2023-11-21T02:03:51;97952.81;;;28.14;32.57
14902;BME280;7542;49.078;9.194;2023-11-21T02:04:53;97954.47;;;28.10;32.89
14902;BME280;7542;49.078;9.194;2023-11-21T02:05:54;97952.59;;;28.11;32.81
14902;BME280;7542;49.078;9.194;2023-11-21T02:06:57;97949.88;;;28.11;32.93
14902;BME280;7542;49.078;9.194;2023-11-21T02:07:59;97954.00;;;28.08;33.01
14902;BME280;7542;49.078;9.194;2023-11-21T02:09:02;97954.00;;;28.08;32.92
14902;BME280;7542;49.078;9.194;2023-11-21T02:10:09;97948.91;;;28.07;32.90
14902;BME280;7542;49.078;9.194;2023-11-21T02:11:11;97954.91;;;28.04;32.99
14902;BME280;7542;49.078;9.194;2023-11-21T02:12:16;97954.91;;;28.04;32.93
14902;BME280;7542;49.078;9.194;2023-11-21T02:13:18;97958.69;;;28.02;33.03
14902;BME280;7542;49.078;9.194;2023-11-21T02:14:21;97948.50;;;27.99;32.98
14902;BME280;7542;49.078;9.194;2023-11-21T02:15:24;97953.88;;;27.99;32.93
14902;BME280;7542;49.078;9.194;2023-11-21T02:16:31;97948.78;;;27.98;33.03
14902;BME280;7542;49.078;9.194;2023-11-21T02:17:34;97953.38;;;27.97;33.14
14902;BME280;7542;49.078;9.194;2023-11-21T02:18:36;97949.88;;;27.97;32.93
14902;BME280;7542;49.078;9.194;2023-11-21T02:19:38;97950.50;;;27.94;33.01
14902;BME280;7542;49.078;9.194;2023-11-21T02:20:40;97953.50;;;27.92;33.34
14902;BME280;7542;49.078;9.194;2023-11-21T02:21:45;97952.41;;;27.93;33.10
14902;BME280;7542;49.078;9.194;2023-11-21T02:22:52;97953.00;;;27.90;32.99
14902;BME280;7542;49.078;9.194;2023-11-21T02:23:59;97948.09;;;27.92;33.01
14902;BME280;7542;49.078;9.194;2023-11-21T02:25:02;97956.75;;;27.89;32.81
14902;BME280;7542;49.078;9.194;2023-11-21T02:26:04;97948.97;;;27.88;33.10
14902;BME280;7542;49.078;9.194;2023-11-21T02:27:06;97953.88;;;27.86;33.00
14902;BME280;7542;49.078;9.194;2023-11-21T02:28:08;97954.97;;;27.85;33.10
14902;BME280;7542;49.078;9.194;2023-11-21T02:29:10;97953.06;;;27.85;33.07
14902;BME280;7542;49.078;9.194;2023-11-21T02:30:15;97951.78;;;27.83;33.19
14902;BME280;7542;49.078;9.194;2023-11-21T02:31:17;97949.09;;;27.83;33.11
14902;BME280;7542;49.078;9.194;2023-11-21T02:32:20;97957.47;;;27.81;33.07
14902;BME280;7542;49.078;9.194;2023-11-21T02:33:24;97959.66;;;27.79;33.17
14902;BME280;7542;49.078;9.194;2023-11-21T02:34:26;97955.34;;;27.78;33.20
14902;BME280;7542;49.078;9.194;2023-11-21T02:35:29;97958.34;;;27.77;33.00
14902;BME280;7542;49.078;9.194;2023-11-21T02:36:34;97961.03;;;27.77;33.23
14902;BME280;7542;49.078;9.194;2023-11-21T02:37:36;97948.66;;;27.76;33.12
14902;BME280;7542;49.078;9.194;2023-11-21T02:38:38;97955.44;;;27.73;33.19
14902;BME280;7542;49.078;9.194;2023-11-21T02:39:40;97949.28;;;27.72;33.34
14902;BME280;7542;49.078;9.194;2023-11-21T02:40:43;97945.78;;;27.72;33.27
14902;BME280;7542;49.078;9.194;2023-11-21T02:41:45;97954.97;;;27.71;33.32
14902;BME280;7542;49.078;9.194;2023-11-21T02:42:49;97956.06;;;27.70;33.24
14902;BME280;7542;49.078;9.194;2023-11-21T02:43:54;97954.72;;;27.67;33.40
14902;BME280;7542;49.078;9.194;2023-11-21T02:44:56;97950.16;;;27.68;33.24
14902;BME280;7542;49.078;9.194;2023-11-21T02:45:58;97948.53;;;27.67;33.33
14902;BME280;7542;49.078;9.194;2023-11-21T02:47:00;97950.44;;;27.66;33.46
14902;BME280;7542;49.078;9.194;2023-11-21T02:48:03;97955.03;;;27.66;33.22
14902;BME280;7542;49.078;9.194;2023-11-21T02:49:06;97946.41;;;27.64;33.15
14902;BME280;7542;49.078;9.194;2023-11-21T02:50:09;97951.81;;;27.64;33.34
14902;BME280;7542;49.078;9.194;2023-11-21T02:51:11;97949.41;;;27.62;33.60
14902;BME280;7542;49.078;9.194;2023-11-21T02:52:13;97955.59;;;27.63;33.34
14902;BME280;7542;49.078;9.194;2023-11-21T02:53:15;97945.13;;;27.61;33.30
14902;BME280;7542;49.078;9.194;2023-11-21T02:54:17;97943.53;;;27.60;33.43
14902;BME280;7542;49.078;9.194;2023-11-21T02:55:21;97947.03;;;27.61;33.42
14902;BME280;7542;49.078;9.194;2023-11-21T02:56:23;97944.63;;;27.59;33.44
14902;BME280;7542;49.078;9.194;2023-11-21T02:57:25;97947.63;;;27.58;33.45
14902;BME280;7542;49.078;9.194;2023-11-21T02:58:26;97945.72;;;27.58;33.50
14902;BME280;7542;49.078;9.194;2023-11-21T02:59:28;97948.19;;;27.55;33.49
14902;BME280;7542;49.078;9.194;2023-11-21T03:00:30;97941.72;;;27.56;33.41
14902;BME280;7542;49.078;9.194;2023-11-21T03:01:32;97945.78;;;27.53;33.08
14902;BME280;7542;49.078;9.194;2023-11-21T03:02:34;97941.81;;;27.51;33.41
14902;BME280;7542;49.078;9.194;2023-11-21T03:03:41;97943.41;;;27.52;33.48
14902;BME280;7542;49.078;9.194;2023-11-21T03:04:43;97945.28;;;27.51;33.35
14902;BME280;7542;49.078;9.194;2023-11-21T03:05:45;97942.91;;;27.50;33.58
14902;BME280;7542;49.078;9.194;2023-11-21T03:06:48;97944.81;;;27.49;33.36
14902;BME280;7542;49.078;9.194;2023-11-21T03:07:49;97948.59;;;27.48;33.44
14902;BME280;7542;49.078;9.194;2023-11-21T03:08:51;97946.19;;;27.47;33.53
14902;BME280;7542;49.078;9.194;2023-11-21T03:09:53;97950.75;;;27.46;33.79
14902;BME280;7542;49.078;9.194;2023-11-21T03:10:55;97942.97;;;27.44;33.55
14902;BME280;7542;49.078;9.194;2023-11-21T03:11:58;97952.16;;;27.43;33.71
14902;BME280;7542;49.078;9.194;2023-11-21T03:13:00;97954.84;;;27.43;33.77
14902;BME280;7542;49.078;9.194;2023-11-21T03:14:02;97949.75;;;27.42;33.55
14902;BME280;7542;49.078;9.194;2023-11-21T03:15:06;97948.97;;;27.41;33.57
14902;BME280;7542;49.078;9.194;2023-11-21T03:16:10;97950.06;;;27.40;33.62
14902;BME280;7542;49.078;9.194;2023-11-21T03:17:12;97951.16;;;27.39;33.49
14902;BME280;7542;49.078;9.194;2023-11-21T03:18:16;97954.66;;;27.40;33.72
14902;BME280;7542;49.078;9.194;2023-11-21T03:19:19;97951.44;;;27.38;33.67
14902;BME280;7542;49.078;9.194;2023-11-21T03:20:21;97950.66;;;27.37;33.69
14902;BME280;7542;49.078;9.194;2023-11-21T03:21:23;97947.16;;;27.37;33.64
14902;BME280;7542;49.078;9.194;2023-11-21T03:22:25;97947.47;;;27.35;33.74
14902;BME280;7542;49.078;9.194;2023-11-21T03:23:27;97952.53;;;27.37;33.79
14902;BME280;7542;49.078;9.194;2023-11-21T03:24:29;97955.00;;;27.33;33.63
14902;BME280;7542;49.078;9.194;2023-11-21T03:25:30;97946.94;;;27.33;33.71
14902;BME280;7542;49.078;9.194;2023-11-21T03:26:33;97943.44;;;27.33;33.85
14902;BME280;7542;49.078;9.194;2023-11-21T03:27:35;97948.31;;;27.31;33.81
14902;BME280;7542;49.078;9.194;2023-11-21T03:28:37;97948.03;;;27.32;33.70
14902;BME280;7542;49.078;9.194;2023-11-21T03:29:39;97950.22;;;27.30;33.67
14902;BME280;7542;49.078;9.194;2023-11-21T03:30:41;97949.41;;;27.30;33.78
14902;BME280;7542;49.078;9.194;2023-11-21T03:31:43;97954.00;;;27.29;33.68
14902;BME280;7542;49.078;9.194;2023-11-21T03:32:45;97947.31;;;27.27;33.69
14902;BME280;7542;49.078;9.194;2023-11-21T03:33:47;97946.53;;;27.26;33.64
14902;BME280;7542;49.078;9.194;2023-11-21T03:34:58;97955.91;;;27.29;33.84
14902;BME280;7542;49.078;9.194;2023-11-21T03:36:01;97951.91;;;27.26;33.60
14902;BME280;7542;49.078;9.194;2023-11-21T03:37:03;97950.31;;;27.25;33.91
14902;BME280;7542;49.078;9.194;2023-11-21T03:38:05;97953.28;;;27.24;33.72
14902;BME280;7542;49.078;9.194;2023-11-21T03:39:07;97954.91;;;27.25;33.70
14902;BME280;7542;49.078;9.194;2023-11-21T03:40:09;97953.56;;;27.22;33.82
14902;BME280;7542;49.078;9.194;2023-11-21T03:41:11;97957.34;;;27.21;33.89
14902;BME280;7542;49.078;9.194;2023-11-21T03:42:13;97951.69;;;27.23;33.86
14902;BME280;7542;49.078;9.194;2023-11-21T03:43:15;97961.16;;;27.20;33.73
14902;BME280;7542;49.078;9.194;2023-11-21T03:44:17;97958.44;;;27.20;33.82
14902;BME280;7542;49.078;9.194;2023-11-21T03:45:19;97960.34;;;27.20;33.67
14902;BME280;7542;49.078;9.194;2023-11-21T03:46:21;97958.75;;;27.19;33.79
14902;BME280;7542;49.078;9.194;2023-11-21T03:47:23;97954.47;;;27.18;33.74
14902;BME280;7542;49.078;9.194;2023-11-21T03:48:25;97962.25;;;27.19;33.93
14902;BME280;7542;49.078;9.194;2023-11-21T03:49:27;97958.25;;;27.17;33.75
14902;BME280;7542;49.078;9.194;2023-11-21T03:50:31;97959.34;;;27.15;33.91
14902;BME280;7542;49.078;9.194;2023-11-21T03:51:33;97957.75;;;27.14;33.86
14902;BME280;7542;49.078;9.194;2023-11-21T03:52:36;97959.63;;;27.14;33.94
14902;BME280;7542;49.078;9.194;2023-11-21T03:53:38;97964.19;;;27.13;33.89
14902;BME280;7542;49.078;9.194;2023-11-21T03:54:40;97957.75;;;27.14;33.93
14902;BME280;7542;49.078;9.194;2023-11-21T03:55:42;97958.81;;;27.13;33.87
14902;BME280;7542;49.078;9.194;2023-11-21T03:56:45;97956.41;;;27.12;34.03
14902;BME280;7542;49.078;9.194;2023-11-21T03:57:47;97957.22;;;27.12;33.82
14902;BME280;7542;49.078;9.194;2023-11-21T03:58:49;97958.59;;;27.10;34.13
14902;BME280;7542;49.078;9.194;2023-11-21T03:59:51;97953.81;;;27.07;34.02
14902;BME280;7542;49.078;9.194;2023-11-21T04:00:53;97964.00;;;27.10;33.84
14902;BME280;7542;49.078;9.194;2023-11-21T04:01:58;97962.69;;;27.07;33.97
14902;BME280;7542;49.078;9.194;2023-11-21T04:03:00;97967.28;;;27.07;33.95
14902;BME280;7542;49.078;9.194;2023-11-21T04:04:02;97963.78;;;27.06;33.98
14902;BME280;7542;49.078;9.194;2023-11-21T04:05:05;97961.38;;;27.05;34.13
14902;BME280;7542;49.078;9.194;2023-11-21T04:06:08;97962.19;;;27.05;33.85
14902;BME280;7542;49.078;9.194;2023-11-21T04:07:11;97961.38;;;27.05;33.86
14902;BME280;7542;49.078;9.194;2023-11-21T04:08:15;97970.25;;;27.05;34.07
14902;BME280;7542;49.078;9.194;2023-11-21T04:09:17;97967.06;;;27.03;33.96
14902;BME280;7542;49.078;9.194;2023-11-21T04:10:19;97963.00;;;27.01;34.13
14902;BME280;7542;49.078;9.194;2023-11-21T04:11:21;97956.56;;;27.02;33.89
14902;BME280;7542;49.078;9.194;2023-11-21T04:12:23;97966.50;;;27.01;34.02
14902;BME280;7542;49.078;9.194;2023-11-21T04:13:25;97962.50;;;26.99;33.91
14902;BME280;7542;49.078;9.194;2023-11-21T04:14:27;97962.50;;;26.99;34.16
14902;BME280;7542;49.078;9.194;2023-11-21T04:15:29;97965.19;;;26.99;33.82
14902;BME280;7542;49.078;9.194;2023-11-21T04:16:31;97968.97;;;26.98;34.16
14902;BME280;7542;49.078;9.194;2023-11-21T04:17:33;97967.09;;;26.98;33.90
14902;BME280;7542;49.078;9.194;2023-11-21T04:18:36;97970.09;;;26.97;34.24
14902;BME280;7542;49.078;9.194;2023-11-21T04:19:39;97966.59;;;26.96;34.14
14902;BME280;7542;49.078;9.194;2023-11-21T04:20:41;97969.56;;;26.95;34.14
14902;BME280;7542;49.078;9.194;2023-11-21T04:21:43;97972.25;;;26.95;34.10
14902;BME280;7542;49.078;9.194;2023-11-21T04:22:45;97973.34;;;26.94;34.08
14902;BME280;7542;49.078;9.194;2023-11-21T04:23:47;97967.97;;;26.94;34.12
14902;BME280;7542;49.078;9.194;2023-11-21T04:24:50;97972.56;;;26.93;34.17
14902;BME280;7542;49.078;9.194;2023-11-21T04:25:53;97974.16;;;26.94;34.21
14902;BME280;7542;49.078;9.194;2023-11-21T04:26:57;97970.66;;;26.94;34.18
14902;BME280;7542;49.078;9.194;2023-11-21T04:28:00;97969.88;;;26.93;34.16
14902;BME280;7542;49.078;9.194;2023-11-21T04:29:02;97971.75;;;26.93;34.01
14902;BME280;7542;49.078;9.194;2023-11-21T04:30:04;97973.13;;;26.90;34.41
14902;BME280;7542;49.078;9.194;2023-11-21T04:31:07;97975.50;;;26.92;34.16
14902;BME280;7542;49.078;9.194;2023-11-21T04:32:09;97966.44;;;26.87;34.07
14902;BME280;7542;49.078;9.194;2023-11-21T04:33:11;97978.78;;;26.88;34.25
14902;BME280;7542;49.078;9.194;2023-11-21T04:34:13;97975.81;;;26.90;34.13
14902;BME280;7542;49.078;9.194;2023-11-21T04:35:15;97974.22;;;26.89;34.22
14902;BME280;7542;49.078;9.194;2023-11-21T04:36:17;97978.00;;;26.88;34.14
14902;BME280;7542;49.078;9.194;2023-11-21T04:37:19;97970.22;;;26.86;34.25
14902;BME280;7542;49.078;9.194;2023-11-21T04:38:21;97976.09;;;26.88;34.43
14902;BME280;7542;49.078;9.194;2023-11-21T04:39:23;97978.00;;;26.88;34.36
14902;BME280;7542;49.078;9.194;2023-11-21T04:40:25;97976.41;;;26.87;34.10
14902;BME280;7542;49.078;9.194;2023-11-21T04:41:28;97982.88;;;26.86;34.45
14902;BME280;7542;49.078;9.194;2023-11-21T04:42:31;97980.97;;;26.86;34.25
14902;BME280;7542;49.078;9.194;2023-11-21T04:43:33;97978.59;;;26.85;34.39
14902;BME280;7542;49.078;9.194;2023-11-21T04:44:34;97980.47;;;26.84;34.20
14902;BME280;7542;49.078;9.194;2023-11-21T04:45:37;97983.97;;;26.85;34.41
14902;BME280;7542;49.078;9.194;2023-11-21T04:46:39;97987.47;;;26.85;34.29
14902;BME280;7542;49.078;9.194;2023-11-21T04:47:41;97986.16;;;26.83;34.42
14902;BME280;7542;49.078;9.194;2023-11-21T04:48:43;97985.34;;;26.82;34.25
14902;BME280;7542;49.078;9.194;2023-11-21T04:49:46;97984.56;;;26.82;34.32
14902;BME280;7542;49.078;9.194;2023-11-21T04:50:51;97983.75;;;26.81;34.36
14902;BME280;7542;49.078;9.194;2023-11-21T04:51:53;97981.88;;;26.82;34.43
14902;BME280;7542;49.078;9.194;2023-11-21T04:52:56;97978.38;;;26.81;34.46
14902;BME280;7542;49.078;9.194;2023-11-21T04:53:58;97980.53;;;26.79;34.41
14902;BME280;7542;49.078;9.194;2023-11-21T04:55:00;97984.31;;;26.78;34.39
14902;BME280;7542;49.078;9.194;2023-11-21T04:56:04;97983.22;;;26.79;34.22
14902;BME280;7542;49.078;9.194;2023-11-21T04:57:07;97987.00;;;26.78;34.38
14902;BME280;7542;49.078;9.194;2023-11-21T04:58:11;97980.81;;;26.78;34.53
14902;BME280;7542;49.078;9.194;2023-11-21T04:59:14;97987.00;;;26.78;34.44
14902;BME280;7542;49.078;9.194;2023-11-21T05:00:16;97995.38;;;26.77;34.34
14902;BME280;7542;49.078;9.194;2023-11-21T05:01:18;97989.19;;;26.76;34.27
14902;BME280;7542;49.078;9.194;2023-11-21T05:02:20;97991.06;;;26.76;34.47
14902;BME280;7542;49.078;9.194;2023-11-21T05:03:36;97989.19;;;26.76;34.60
14902;BME280;7542;49.078;9.194;2023-11-21T05:04:40;97987.59;;;26.75;34.18
14902;BME280;7542;49.078;9.194;2023-11-21T05:05:44;97989.19;;;26.76;34.44
14902;BME280;7542;49.078;9.194;2023-11-21T05:06:46;97986.00;;;26.74;34.52
14902;BME280;7542;49.078;9.194;2023-11-21T05:07:49;97994.06;;;26.74;34.28
14902;BME280;7542;49.078;9.194;2023-11-21T05:08:51;97997.84;;;26.73;34.46
14902;BME280;7542;49.078;9.194;2023-11-21T05:09:53;97992.47;;;26.73;34.43
14902;BME280;7542;49.078;9.194;2023-11-21T05:10:55;97989.28;;;26.71;34.23
14902;BME280;7542;49.078;9.194;2023-11-21T05:11:57;97986.84;;;26.70;34.44
14902;BME280;7542;49.078;9.194;2023-11-21T05:12:59;97983.88;;;26.71;34.29
14902;BME280;7542;49.078;9.194;2023-11-21T05:14:01;97986.03;;;26.69;34.35
14902;BME280;7542;49.078;9.194;2023-11-21T05:15:08;97988.97;;;26.73;34.35
14902;BME280;7542;49.078;9.194;2023-11-21T05:16:14;97986.84;;;26.70;34.09
14902;BME280;7542;49.078;9.194;2023-11-21T05:17:16;97987.94;;;26.69;34.04
14902;BME280;7542;49.078;9.194;2023-11-21T05:18:18;97991.41;;;26.69;34.20
14902;BME280;7542;49.078;9.194;2023-11-21T05:19:20;97987.66;;;26.70;33.88
14902;BME280;7542;49.078;9.194;2023-11-21T05:20:23;97992.22;;;26.70;33.93
14902;BME280;7542;49.078;9.194;2023-11-21T05:21:28;98000.03;;;26.71;34.09
14902;BME280;7542;49.078;9.194;2023-11-21T05:22:34;97998.69;;;26.69;34.07
14902;BME280;7542;49.078;9.194;2023-11-21T05:23:36;97997.91;;;26.68;33.98
14902;BME280;7542;49.078;9.194;2023-11-21T05:24:39;98001.38;;;26.69;34.22
14902;BME280;7542;49.078;9.194;2023-11-21T05:25:41;97993.59;;;26.67;34.25
14902;BME280;7542;49.078;9.194;2023-11-21T05:26:43;97999.78;;;26.68;33.92
14902;BME280;7542;49.078;9.194;2023-11-21T05:27:46;97998.97;;;26.67;34.04
14902;BME280;7542;49.078;9.194;2023-11-21T05:28:48;97991.41;;;26.69;33.97
14902;BME280;7542;49.078;9.194;2023-11-21T05:29:50;97992.81;;;26.67;34.03
14902;BME280;7542;49.078;9.194;2023-11-21T05:30:52;98001.66;;;26.67;33.83
14902;BME280;7542;49.078;9.194;2023-11-21T05:32:14;98003.81;;;26.70;33.74
14902;BME280;7542;49.078;9.194;2023-11-21T05:33:16;98004.06;;;26.69;33.85
14902;BME280;7542;49.078;9.194;2023-11-21T05:34:19;98006.75;;;26.69;33.79
14902;BME280;7542;49.078;9.194;2023-11-21T05:35:22;98014.03;;;26.68;33.79
14902;BME280;7542;49.078;9.194;2023-11-21T05:36:24;98009.75;;;26.67;33.66